Paddy Guidry — WTG3900 — position and weather

sailwx.info

Track history (hours):
 
Tides and Currents Weather Stations Pressure Air Temp Water Temp Dewpoint Dewpoint Depression Visibility Wind Speed Wind Dir Waves Ship Positions

Paddy Guidry

Owner: CAPTAIN TIMMY INC, GALLIANO, LA. More information available from US FCC via Universal Licensing System and Coast Guard Vessel Documentation Center.

Last reported at 2016-Feb-04 11:33 UTC. Time now 2016-Feb-11 06:30 UTC.
Position N 29°34' W 090°33'.

; draft 1.5 m.

Type: Tug. MMSI: 366998310.

Date/timePositionNaut miles runAvg speedWind from/ knotsBaromVisibWave heightAir tempDewpointWater temp
2016-Feb-04 11:33N 29°34' W 090°33'6 6.5
2016-Feb-04 10:33N 29°36' W 090°40'4 3.6
2016-Feb-04 09:33N 29°34' W 090°44'4 0.5
2016-Feb-04 01:33N 29°32' W 090°47'4 4.4
2016-Feb-04 00:33N 29°34' W 090°43'6 5.6
2016-Feb-03 23:33N 29°28' W 090°43'2 0.3
2016-Feb-03 16:08N 29°26' W 090°43'4 6.3
2016-Feb-03 15:33N 29°29' W 090°43'6 5.8
2016-Feb-03 14:27N 29°23' W 090°44'3 0.3
2016-Feb-03 04:18N 29°26' W 090°43'4 4.7
2016-Feb-03 03:33N 29°29' W 090°43'4 4.4
2016-Feb-03 02:33N 29°34' W 090°43'4 3.6
2016-Feb-03 01:33N 29°32' W 090°46'5 0.2
2016-Feb-01 20:26N 29°32' W 090°53'4 5.0
2016-Feb-01 19:33N 29°32' W 090°48'4 4.0
2016-Feb-01 18:33N 29°34' W 090°44'2 2.5
2016-Feb-01 17:33N 29°32' W 090°42'3 3.1
2016-Feb-01 16:33N 29°29' W 090°43'1 0.7
2016-Feb-01 15:33N 29°28' W 090°43'0 0.0
2016-Feb-01 14:33N 29°28' W 090°43'0 0.0
2016-Feb-01 13:33N 29°28' W 090°43'0 0.0
2016-Feb-01 12:33N 29°28' W 090°43'0 0.0
2016-Feb-01 11:33N 29°28' W 090°43'0 0.0
2016-Feb-01 10:33N 29°28' W 090°43'0 0.0
2016-Feb-01 09:33N 29°28' W 090°43'0 0.0
2016-Feb-01 08:33N 29°28' W 090°43'0 0.0
2016-Feb-01 07:33N 29°28' W 090°43'0 0.0
2016-Feb-01 06:33N 29°28' W 090°43'0 0.0
2016-Feb-01 05:33N 29°28' W 090°43'1 0.8
2016-Feb-01 04:33N 29°27' W 090°43'0 0.0
2016-Feb-01 03:33N 29°27' W 090°43'2 2.0
2016-Feb-01 02:33N 29°25' W 090°43'0 0.0
2016-Jan-31 13:32N 29°26' W 090°43'7 7.5
2016-Jan-31 12:33N 29°33' W 090°42'4 3.8
2016-Jan-31 11:33N 29°37' W 090°41'5 5.0
2016-Jan-31 10:33N 29°35' W 090°36'6 5.6
2016-Jan-31 09:33N 29°34' W 090°30'  
Track history (hours):
 
Tides and Currents Weather Stations Pressure Air Temp Water Temp Dewpoint Dewpoint Depression Visibility Wind Speed Wind Dir Waves Ship Positions

Paddy Guidry

Owner: CAPTAIN TIMMY INC, GALLIANO, LA. More information available from US FCC via Universal Licensing System and Coast Guard Vessel Documentation Center.

Last reported at 2016-Feb-04 11:33 UTC. Time now 2016-Feb-11 06:30 UTC.
Position N 29°34' W 090°33'.

; draft 1.5 m.

Type: Tug. MMSI: 366998310.

Date/timePositionNaut miles runAvg speedWind from/ knotsBaromVisibWave heightAir tempDewpointWater temp
2016-Feb-04 11:33N 29°34' W 090°33'6 6.5
2016-Feb-04 10:33N 29°36' W 090°40'4 3.6
2016-Feb-04 09:33N 29°34' W 090°44'4 0.5
2016-Feb-04 01:33N 29°32' W 090°47'4 4.4
2016-Feb-04 00:33N 29°34' W 090°43'6 5.6
2016-Feb-03 23:33N 29°28' W 090°43'2 0.3
2016-Feb-03 16:08N 29°26' W 090°43'4 6.3
2016-Feb-03 15:33N 29°29' W 090°43'6 5.8
2016-Feb-03 14:27N 29°23' W 090°44'3 0.3
2016-Feb-03 04:18N 29°26' W 090°43'4 4.7
2016-Feb-03 03:33N 29°29' W 090°43'4 4.4
2016-Feb-03 02:33N 29°34' W 090°43'4 3.6
2016-Feb-03 01:33N 29°32' W 090°46'5 0.2
2016-Feb-01 20:26N 29°32' W 090°53'4 5.0
2016-Feb-01 19:33N 29°32' W 090°48'4 4.0
2016-Feb-01 18:33N 29°34' W 090°44'2 2.5
2016-Feb-01 17:33N 29°32' W 090°42'3 3.1
2016-Feb-01 16:33N 29°29' W 090°43'1 0.7
2016-Feb-01 15:33N 29°28' W 090°43'0 0.0
2016-Feb-01 14:33N 29°28' W 090°43'0 0.0
2016-Feb-01 13:33N 29°28' W 090°43'0 0.0
2016-Feb-01 12:33N 29°28' W 090°43'0 0.0
2016-Feb-01 11:33N 29°28' W 090°43'0 0.0
2016-Feb-01 10:33N 29°28' W 090°43'0 0.0
2016-Feb-01 09:33N 29°28' W 090°43'0 0.0
2016-Feb-01 08:33N 29°28' W 090°43'0 0.0
2016-Feb-01 07:33N 29°28' W 090°43'0 0.0
2016-Feb-01 06:33N 29°28' W 090°43'0 0.0
2016-Feb-01 05:33N 29°28' W 090°43'1 0.8
2016-Feb-01 04:33N 29°27' W 090°43'0 0.0
2016-Feb-01 03:33N 29°27' W 090°43'2 2.0
2016-Feb-01 02:33N 29°25' W 090°43'0 0.0
2016-Jan-31 13:32N 29°26' W 090°43'7 7.5
2016-Jan-31 12:33N 29°33' W 090°42'4 3.8
2016-Jan-31 11:33N 29°37' W 090°41'5 5.0
2016-Jan-31 10:33N 29°35' W 090°36'6 5.6
2016-Jan-31 09:33N 29°34' W 090°30'  

Dump ship's entire track history